createdAt,value
2022-09-16T00:00:19.254Z,99366.75
2022-09-16T00:00:50.718Z,99362.41
2022-09-16T00:01:22.242Z,99359.97
2022-09-16T00:01:53.791Z,99359.50
2022-09-16T00:02:25.277Z,99369.31
2022-09-16T00:02:56.770Z,99356.44
2022-09-16T00:03:28.174Z,99363.34
2022-09-16T00:03:59.585Z,99364.97
2022-09-16T00:04:30.979Z,99362.72
2022-09-16T00:05:02.483Z,99369.00
2022-09-16T00:05:33.941Z,99369.63
2022-09-16T00:06:05.412Z,99364.16
2022-09-16T00:06:36.877Z,99362.72
2022-09-16T00:07:08.259Z,99366.56
2022-09-16T00:07:39.754Z,99366.56
2022-09-16T00:08:11.230Z,99367.69
2022-09-16T00:08:42.661Z,99371.53
2022-09-16T00:09:14.102Z,99365.75
2022-09-16T00:09:45.546Z,99364.16
2022-09-16T00:10:16.974Z,99370.41
2022-09-16T00:10:48.440Z,99368.81
2022-09-16T00:11:19.816Z,99370.41
2022-09-16T00:11:51.262Z,99368.00
2022-09-16T00:12:22.659Z,99364.16
2022-09-16T00:12:54.116Z,99361.41
2022-09-16T00:13:25.712Z,99362.84
2022-09-16T00:13:57.090Z,99357.88
2022-09-16T00:14:28.668Z,99361.72
2022-09-16T00:15:00.064Z,99367.19
2022-09-16T00:15:31.529Z,99363.66
2022-09-16T00:16:02.996Z,99364.16
2022-09-16T00:16:34.534Z,99362.53
2022-09-16T00:17:06.121Z,99362.53
2022-09-16T00:17:37.487Z,99362.53
2022-09-16T00:18:08.952Z,99363.03
2022-09-16T00:18:40.345Z,99363.34
2022-09-16T00:19:11.848Z,99361.72
2022-09-16T00:19:43.284Z,99365.59
2022-09-16T00:20:14.680Z,99364.47
2022-09-16T00:20:46.060Z,99362.53
2022-09-16T00:21:17.474Z,99361.72
2022-09-16T00:21:48.947Z,99364.47
2022-09-16T00:22:20.360Z,99360.94
2022-09-16T00:22:51.843Z,99363.84
2022-09-16T00:23:23.327Z,99361.72
2022-09-16T00:23:54.880Z,99366.38
2022-09-16T00:24:26.312Z,99369.44
2022-09-16T00:24:57.758Z,99359.31
2022-09-16T00:25:29.211Z,99363.66
2022-09-16T00:26:00.624Z,99360.75
2022-09-16T00:26:33.174Z,99363.66
2022-09-16T00:27:04.578Z,99368.31
2022-09-16T00:27:36.029Z,99366.72
2022-09-16T00:28:07.465Z,99369.13
2022-09-16T00:28:38.965Z,99362.84
2022-09-16T00:29:10.421Z,99366.72
2022-09-16T00:29:41.881Z,99363.16
2022-09-16T00:30:13.399Z,99362.34
2022-09-16T00:30:44.842Z,99367.03
2022-09-16T00:31:16.287Z,99369.94
2022-09-16T00:31:47.835Z,99362.53
2022-09-16T00:32:19.425Z,99363.66
2022-09-16T00:32:50.975Z,99361.25
2022-09-16T00:33:22.486Z,99358.50
2022-09-16T00:33:53.980Z,99360.13
2022-09-16T00:34:25.415Z,99363.66
2022-09-16T00:34:56.893Z,99362.34
2022-09-16T00:35:28.435Z,99364.78
2022-09-16T00:35:59.943Z,99365.91
2022-09-16T00:36:31.581Z,99356.09
2022-09-16T00:37:03.152Z,99366.72
2022-09-16T00:37:34.681Z,99363.16
2022-09-16T00:38:06.145Z,99359.94
2022-09-16T00:38:37.617Z,99369.25
2022-09-16T00:39:09.052Z,99359.94
2022-09-16T00:39:40.433Z,99358.31
2022-09-16T00:40:11.942Z,99362.34
2022-09-16T00:40:43.424Z,99359.94
2022-09-16T00:41:14.818Z,99359.94
2022-09-16T00:41:46.300Z,99355.28
2022-09-16T00:42:17.812Z,99359.94
2022-09-16T00:42:49.275Z,99356.91
2022-09-16T00:43:20.727Z,99362.34
2022-09-16T00:43:52.144Z,99364.59
2022-09-16T00:44:23.575Z,99361.56
2022-09-16T00:44:55.059Z,99358.50
2022-09-16T00:45:26.568Z,99358.50
2022-09-16T00:45:58.050Z,99360.13
2022-09-16T00:46:29.444Z,99356.41
2022-09-16T00:47:01.096Z,99357.53
2022-09-16T00:47:32.626Z,99354.78
2022-09-16T00:48:04.179Z,99352.06
2022-09-16T00:48:35.606Z,99351.56
2022-09-16T00:49:07.029Z,99358.66
2022-09-16T00:49:38.472Z,99360.25
2022-09-16T00:50:09.946Z,99352.06
2022-09-16T00:50:41.418Z,99360.75
2022-09-16T00:51:12.810Z,99358.31
2022-09-16T00:51:44.291Z,99359.13
2022-09-16T00:52:15.702Z,99359.13
2022-09-16T00:52:47.096Z,99358.81
2022-09-16T00:53:18.540Z,99353.66
2022-09-16T00:53:50.023Z,99354.47
2022-09-16T00:54:21.472Z,99355.59
2022-09-16T00:54:53.186Z,99351.25
2022-09-16T00:55:24.613Z,99351.25
2022-09-16T00:55:56.041Z,99349.81
2022-09-16T00:56:27.439Z,99356.91
2022-09-16T00:56:58.923Z,99357.22
2022-09-16T00:57:30.332Z,99351.25
2022-09-16T00:58:01.794Z,99354.47
2022-09-16T00:58:33.382Z,99357.53
2022-09-16T00:59:05.133Z,99355.91
2022-09-16T00:59:36.491Z,99349.63
2022-09-16T01:00:07.974Z,99354.31
2022-09-16T01:00:39.431Z,99353.50
2022-09-16T01:01:10.876Z,99354.31
2022-09-16T01:01:42.343Z,99359.75
2022-09-16T01:02:13.950Z,99351.56
2022-09-16T01:02:45.442Z,99352.69
2022-09-16T01:03:16.905Z,99354.31
2022-09-16T01:03:48.341Z,99351.06
2022-09-16T01:04:19.751Z,99358.16
2022-09-16T01:04:51.212Z,99366.84
2022-09-16T01:05:22.628Z,99359.75
2022-09-16T01:05:54.031Z,99358.97
2022-09-16T01:06:25.444Z,99349.63
2022-09-16T01:06:57.011Z,99358.66
2022-09-16T01:07:28.731Z,99348.34
2022-09-16T01:08:00.201Z,99348.03
2022-09-16T01:08:31.677Z,99352.69
2022-09-16T01:09:06.115Z,99350.28
2022-09-16T01:09:37.494Z,99358.16
2022-09-16T01:10:08.916Z,99355.09
2022-09-16T01:10:40.330Z,99350.75
2022-09-16T01:11:11.773Z,99354.31
2022-09-16T01:11:43.162Z,99348.84
2022-09-16T01:12:14.574Z,99349.94
2022-09-16T01:12:46.013Z,99346.41
2022-09-16T01:13:17.489Z,99354.31
2022-09-16T01:13:48.893Z,99354.31
2022-09-16T01:14:20.325Z,99350.75
2022-09-16T01:14:51.805Z,99353.50
2022-09-16T01:15:23.279Z,99347.22
2022-09-16T01:15:54.847Z,99348.84
2022-09-16T01:16:26.398Z,99348.03
2022-09-16T01:16:57.929Z,99356.22
2022-09-16T01:17:29.425Z,99344.97
2022-09-16T01:18:00.879Z,99346.41
2022-09-16T01:18:32.426Z,99348.84
2022-09-16T01:19:04.152Z,99349.63
2022-09-16T01:19:35.634Z,99348.84
2022-09-16T01:20:07.089Z,99346.59
2022-09-16T01:20:38.531Z,99345.78
2022-09-16T01:21:09.962Z,99348.84
2022-09-16T01:21:41.371Z,99344.16
2022-09-16T01:22:12.818Z,99344.97
2022-09-16T01:22:44.339Z,99350.44
2022-09-16T01:23:15.945Z,99341.75
2022-09-16T01:23:47.364Z,99348.84
2022-09-16T01:24:18.798Z,99343.69
2022-09-16T01:24:50.202Z,99346.91
2022-09-16T01:25:21.622Z,99358.16
2022-09-16T01:25:53.013Z,99349.63
2022-09-16T01:26:24.409Z,99356.53
2022-09-16T01:26:55.830Z,99354.63
2022-09-16T01:27:27.277Z,99356.22
2022-09-16T01:27:58.739Z,99361.19
2022-09-16T01:28:30.290Z,99357.16
2022-09-16T01:29:01.710Z,99356.53
2022-09-16T01:29:33.270Z,99354.94
2022-09-16T01:30:04.792Z,99354.94
2022-09-16T01:30:36.229Z,99357.34
2022-09-16T01:31:07.877Z,99363.63
2022-09-16T01:31:39.386Z,99349.94
2022-09-16T01:32:10.870Z,99360.41
2022-09-16T01:32:42.307Z,99360.72
2022-09-16T01:33:13.804Z,99351.69
2022-09-16T01:33:45.252Z,99358.78
2022-09-16T01:34:16.753Z,99353.31
2022-09-16T01:34:48.172Z,99362.81
2022-09-16T01:35:19.650Z,99349.78
2022-09-16T01:35:51.037Z,99354.13
2022-09-16T01:36:22.448Z,99362.00
2022-09-16T01:36:53.894Z,99359.91
2022-09-16T01:37:25.260Z,99359.59
2022-09-16T01:37:56.643Z,99352.19
2022-09-16T01:38:28.162Z,99355.72
2022-09-16T01:38:59.610Z,99355.72
2022-09-16T01:39:31.024Z,99364.25
2022-09-16T01:40:02.585Z,99361.19
2022-09-16T01:40:34.099Z,99361.50
2022-09-16T01:41:05.554Z,99364.25
2022-09-16T01:41:37.033Z,99363.13
2022-09-16T01:42:08.429Z,99349.78
2022-09-16T01:42:39.823Z,99350.28
2022-09-16T01:43:11.237Z,99363.44
2022-09-16T01:43:42.687Z,99362.63
2022-09-16T01:44:14.158Z,99361.84
2022-09-16T01:44:45.562Z,99355.72
2022-09-16T01:45:16.962Z,99361.50
2022-09-16T01:45:48.382Z,99350.91
2022-09-16T01:46:19.781Z,99357.97
2022-09-16T01:46:51.312Z,99363.44
2022-09-16T01:47:22.890Z,99357.97
2022-09-16T01:47:54.304Z,99362.31
2022-09-16T01:48:25.769Z,99361.19
2022-09-16T01:48:57.211Z,99362.31
2022-09-16T01:49:28.628Z,99361.19
2022-09-16T01:50:00.070Z,99350.28
2022-09-16T01:50:31.527Z,99359.59
2022-09-16T01:51:02.917Z,99354.94
2022-09-16T01:51:34.317Z,99356.53
2022-09-16T01:52:05.703Z,99364.75
2022-09-16T01:52:37.144Z,99361.19
2022-09-16T01:53:08.629Z,99359.59
2022-09-16T01:53:40.030Z,99358.47
2022-09-16T01:54:11.504Z,99362.00
2022-09-16T01:54:42.969Z,99353.31
2022-09-16T01:55:14.373Z,99355.72
2022-09-16T01:55:45.789Z,99361.50
2022-09-16T01:56:17.248Z,99364.25
2022-09-16T01:56:48.606Z,99359.91
2022-09-16T01:57:23.211Z,99363.94
2022-09-16T01:57:54.623Z,99362.63
2022-09-16T01:58:26.034Z,99360.41
2022-09-16T01:58:57.535Z,99360.41
2022-09-16T01:59:28.957Z,99354.94
2022-09-16T02:00:00.384Z,99359.09
2022-09-16T02:00:31.963Z,99357.16
2022-09-16T02:01:03.596Z,99358.78
2022-09-16T02:01:35.065Z,99357.97
2022-09-16T02:02:06.588Z,99361.84
2022-09-16T02:02:38.326Z,99360.72
2022-09-16T02:03:09.748Z,99354.94
2022-09-16T02:03:41.171Z,99357.47
2022-09-16T02:04:12.637Z,99360.53
2022-09-16T02:04:44.052Z,99361.84
2022-09-16T02:05:15.471Z,99357.47
2022-09-16T02:05:46.876Z,99362.63
2022-09-16T02:06:18.314Z,99357.16
2022-09-16T02:06:49.725Z,99362.63
2022-09-16T02:07:21.121Z,99361.03
2022-09-16T02:07:52.596Z,99357.16
2022-09-16T02:08:24.007Z,99363.13
2022-09-16T02:08:55.459Z,99358.47
2022-09-16T02:09:26.942Z,99364.25
2022-09-16T02:09:58.391Z,99363.44
2022-09-16T02:10:29.836Z,99365.88
2022-09-16T02:11:01.218Z,99362.63
2022-09-16T02:11:32.624Z,99365.06
2022-09-16T02:12:04.032Z,99358.78
2022-09-16T02:12:35.505Z,99363.44
2022-09-16T02:13:06.990Z,99350.09
2022-09-16T02:13:38.453Z,99359.91
2022-09-16T02:14:09.855Z,99357.97
2022-09-16T02:14:41.253Z,99358.78
2022-09-16T02:15:12.678Z,99359.91
2022-09-16T02:15:44.091Z,99361.03
2022-09-16T02:16:15.601Z,99359.91
2022-09-16T02:16:47.041Z,99355.88
2022-09-16T02:17:18.428Z,99359.41
2022-09-16T02:17:49.880Z,99349.78
2022-09-16T02:18:21.271Z,99350.09
2022-09-16T02:18:52.689Z,99348.16
2022-09-16T02:19:24.086Z,99361.84
2022-09-16T02:19:55.493Z,99348.47
2022-09-16T02:20:26.996Z,99354.75
2022-09-16T02:20:58.457Z,99339.97
2022-09-16T02:21:29.879Z,99349.28
2022-09-16T02:22:01.304Z,99347.34
2022-09-16T02:22:32.726Z,99342.38
2022-09-16T02:23:04.239Z,99348.16
2022-09-16T02:23:35.627Z,99346.25
2022-09-16T02:24:07.107Z,99347.34
2022-09-16T02:24:38.499Z,99353.31
2022-09-16T02:25:09.943Z,99345.91
2022-09-16T02:25:41.343Z,99352.19
2022-09-16T02:26:12.739Z,99361.03
2022-09-16T02:26:44.155Z,99348.16
2022-09-16T02:27:15.577Z,99343.00
2022-09-16T02:27:46.988Z,99348.97
2022-09-16T02:28:18.517Z,99350.09
2022-09-16T02:28:49.931Z,99356.38
2022-09-16T02:29:21.387Z,99341.88
2022-09-16T02:29:52.786Z,99348.16
2022-09-16T02:30:24.208Z,99348.97
2022-09-16T02:30:55.799Z,99347.34
2022-09-16T02:31:27.285Z,99341.56
2022-09-16T02:31:58.813Z,99345.13
2022-09-16T02:32:30.204Z,99347.03
2022-09-16T02:33:01.741Z,99348.16
2022-09-16T02:33:33.411Z,99343.50
2022-09-16T02:34:04.870Z,99346.25
2022-09-16T02:34:36.276Z,99344.63
2022-09-16T02:35:07.767Z,99344.94
2022-09-16T02:35:39.155Z,99343.31
2022-09-16T02:36:10.572Z,99344.94
2022-09-16T02:36:41.989Z,99355.88
2022-09-16T02:37:13.425Z,99348.47
2022-09-16T02:37:44.852Z,99343.00
2022-09-16T02:38:16.315Z,99346.88
2022-09-16T02:38:47.816Z,99339.47
2022-09-16T02:39:19.196Z,99348.97
2022-09-16T02:39:50.695Z,99345.75
2022-09-16T02:40:22.266Z,99340.28
2022-09-16T02:40:53.732Z,99343.81
2022-09-16T02:41:25.260Z,99346.56
2022-09-16T02:41:56.659Z,99351.38
2022-09-16T02:42:28.141Z,99347.66
2022-09-16T02:42:59.526Z,99344.94
2022-09-16T02:43:30.928Z,99347.34
2022-09-16T02:44:02.527Z,99355.06
2022-09-16T02:44:33.949Z,99353.94
2022-09-16T02:45:05.430Z,99343.63
2022-09-16T02:45:36.863Z,99343.31
2022-09-16T02:46:08.405Z,99350.72
2022-09-16T02:46:39.922Z,99355.38
2022-09-16T02:47:11.376Z,99351.53
2022-09-16T02:47:42.733Z,99340.91
2022-09-16T02:48:14.124Z,99346.56
2022-09-16T02:48:45.553Z,99346.88
2022-09-16T02:49:17.061Z,99346.88
2022-09-16T02:49:48.437Z,99343.31
2022-09-16T02:50:19.861Z,99338.66
2022-09-16T02:50:51.289Z,99339.16
2022-09-16T02:51:22.722Z,99342.53
2022-09-16T02:51:54.154Z,99339.78
2022-09-16T02:52:25.618Z,99346.88
2022-09-16T02:52:57.079Z,99338.34
2022-09-16T02:53:28.520Z,99343.00
2022-09-16T02:53:59.946Z,99335.63
2022-09-16T02:54:31.361Z,99341.41
2022-09-16T02:55:02.904Z,99335.13
2022-09-16T02:55:34.329Z,99339.78
2022-09-16T02:56:05.849Z,99345.25
2022-09-16T02:56:37.249Z,99340.09
2022-09-16T02:57:08.698Z,99338.66
2022-09-16T02:57:40.127Z,99339.47
2022-09-16T02:58:11.517Z,99341.09
2022-09-16T02:58:42.894Z,99335.94
2022-09-16T02:59:14.313Z,99339.16
2022-09-16T02:59:45.713Z,99342.53
2022-09-16T03:00:17.192Z,99335.94
2022-09-16T03:00:48.623Z,99342.22
2022-09-16T03:01:20.121Z,99339.78
2022-09-16T03:01:51.602Z,99334.31
2022-09-16T03:02:23.066Z,99337.06
2022-09-16T03:02:54.551Z,99342.22
2022-09-16T03:03:26.014Z,99340.78
2022-09-16T03:03:57.480Z,99333.69
2022-09-16T03:04:28.926Z,99341.88
2022-09-16T03:05:00.420Z,99340.28
2022-09-16T03:05:31.970Z,99338.34
2022-09-16T03:06:03.724Z,99332.88
2022-09-16T03:06:35.153Z,99339.16
2022-09-16T03:07:06.625Z,99340.28
2022-09-16T03:07:38.032Z,99338.03
2022-09-16T03:08:09.538Z,99336.44
2022-09-16T03:08:41.016Z,99337.53
2022-09-16T03:09:12.437Z,99335.94
2022-09-16T03:09:43.843Z,99338.34
2022-09-16T03:10:15.236Z,99333.19
2022-09-16T03:10:46.721Z,99336.25
2022-09-16T03:11:18.149Z,99331.59
2022-09-16T03:11:49.596Z,99338.19
2022-09-16T03:12:21.032Z,99331.91
2022-09-16T03:12:52.499Z,99334.31
2022-09-16T03:13:23.907Z,99333.19
2022-09-16T03:13:55.371Z,99330.47
2022-09-16T03:14:26.818Z,99334.31
2022-09-16T03:14:58.237Z,99335.44
2022-09-16T03:15:29.646Z,99331.59
2022-09-16T03:16:01.173Z,99330.47
2022-09-16T03:16:32.692Z,99335.13
2022-09-16T03:17:04.181Z,99332.72
2022-09-16T03:17:35.580Z,99335.94
2022-09-16T03:18:07.028Z,99332.41
2022-09-16T03:18:38.413Z,99330.78
2022-09-16T03:19:09.830Z,99326.94
2022-09-16T03:19:41.238Z,99334.00
2022-09-16T03:20:12.724Z,99331.59
2022-09-16T03:20:44.142Z,99330.28
2022-09-16T03:21:15.576Z,99326.94
2022-09-16T03:21:47.002Z,99324.50
2022-09-16T03:22:18.542Z,99334.31
2022-09-16T03:22:49.960Z,99333.81
2022-09-16T03:23:21.404Z,99327.56
2022-09-16T03:23:52.878Z,99329.47
2022-09-16T03:24:24.324Z,99328.34
2022-09-16T03:24:55.838Z,99322.91
2022-09-16T03:25:27.283Z,99329.97
2022-09-16T03:25:58.716Z,99328.84
2022-09-16T03:26:30.132Z,99325.63
2022-09-16T03:27:01.617Z,99330.28
2022-09-16T03:27:33.303Z,99321.78
2022-09-16T03:28:04.906Z,99329.16
2022-09-16T03:28:36.408Z,99317.75
2022-09-16T03:29:07.838Z,99325.63
2022-09-16T03:29:43.726Z,99318.56
2022-09-16T03:30:17.137Z,99326.75
2022-09-16T03:30:48.571Z,99312.59
2022-09-16T03:31:20.027Z,99320.78
2022-09-16T03:31:51.478Z,99310.66
2022-09-16T03:32:22.937Z,99317.75
2022-09-16T03:32:54.350Z,99315.31
2022-09-16T03:33:25.791Z,99319.66
2022-09-16T03:33:57.226Z,99317.75
2022-09-16T03:34:28.693Z,99311.47
2022-09-16T03:35:00.104Z,99318.06
2022-09-16T03:35:31.523Z,99320.16
2022-09-16T03:36:03.042Z,99322.91
2022-09-16T03:36:34.515Z,99318.56
2022-09-16T03:37:05.949Z,99319.34
2022-09-16T03:37:37.340Z,99315.81
2022-09-16T03:38:08.722Z,99321.28
2022-09-16T03:38:40.173Z,99315.31
2022-09-16T03:39:11.641Z,99315.31
2022-09-16T03:39:43.317Z,99316.13
2022-09-16T03:40:14.836Z,99313.09
2022-09-16T03:40:46.323Z,99316.13
2022-09-16T03:41:17.728Z,99313.41
2022-09-16T03:41:49.115Z,99317.75
2022-09-16T03:42:20.575Z,99316.94
2022-09-16T03:42:51.983Z,99315.81
2022-09-16T03:43:23.484Z,99310.97
2022-09-16T03:43:55.025Z,99315.81
2022-09-16T03:44:26.534Z,99313.09
2022-09-16T03:44:58.012Z,99311.47
2022-09-16T03:45:29.485Z,99313.09
2022-09-16T03:46:00.937Z,99314.69
2022-09-16T03:46:32.571Z,99314.69
2022-09-16T03:47:04.092Z,99317.75
2022-09-16T03:47:35.552Z,99316.63
2022-09-16T03:48:06.970Z,99320.66
2022-09-16T03:48:38.418Z,99316.31
2022-09-16T03:49:09.858Z,99320.16
2022-09-16T03:49:41.281Z,99318.56
2022-09-16T03:50:12.660Z,99316.94
2022-09-16T03:50:44.107Z,99309.84
2022-09-16T03:51:15.554Z,99310.66
2022-09-16T03:51:47.005Z,99312.59
2022-09-16T03:52:18.465Z,99316.13
2022-09-16T03:52:49.914Z,99316.13
2022-09-16T03:53:21.340Z,99315.31
2022-09-16T03:53:52.885Z,99307.44
2022-09-16T03:54:24.292Z,99315.81
2022-09-16T03:54:55.717Z,99314.22
2022-09-16T03:55:27.185Z,99308.44
2022-09-16T03:55:58.589Z,99314.53
2022-09-16T03:56:30.069Z,99313.09
2022-09-16T03:57:01.467Z,99316.94
2022-09-16T03:57:33.166Z,99312.59
2022-09-16T03:58:04.603Z,99309.06
2022-09-16T03:58:36.049Z,99316.13
2022-09-16T03:59:07.433Z,99312.78
2022-09-16T03:59:38.878Z,99315.00
2022-09-16T04:00:10.429Z,99315.81
2022-09-16T04:00:44.574Z,99315.00
2022-09-16T04:01:16.016Z,99311.47
2022-09-16T04:01:47.466Z,99313.09
2022-09-16T04:02:19.019Z,99306.00
2022-09-16T04:02:50.615Z,99313.09
2022-09-16T04:03:22.115Z,99312.28
2022-09-16T04:03:53.574Z,99316.31
2022-09-16T04:04:25.025Z,99313.09
2022-09-16T04:04:56.463Z,99311.47
2022-09-16T04:05:27.899Z,99306.50
2022-09-16T04:05:59.330Z,99313.88
2022-09-16T04:06:30.829Z,99310.34
2022-09-16T04:07:02.224Z,99307.63
2022-09-16T04:07:33.841Z,99312.78
2022-09-16T04:08:05.352Z,99313.56
2022-09-16T04:08:36.873Z,99309.22
2022-09-16T04:09:08.329Z,99302.97
2022-09-16T04:09:39.793Z,99311.97
2022-09-16T04:10:11.186Z,99313.56
2022-09-16T04:10:42.590Z,99310.03
2022-09-16T04:11:13.988Z,99309.22
2022-09-16T04:11:45.364Z,99305.19
2022-09-16T04:12:16.788Z,99306.00
2022-09-16T04:12:48.190Z,99310.66
2022-09-16T04:13:19.637Z,99306.00
2022-09-16T04:13:51.117Z,99313.09
2022-09-16T04:14:22.586Z,99301.66
2022-09-16T04:14:54.057Z,99309.06
2022-09-16T04:15:25.498Z,99309.06
2022-09-16T04:15:56.967Z,99307.75
2022-09-16T04:16:28.448Z,99307.13
2022-09-16T04:16:59.869Z,99305.19
2022-09-16T04:17:31.324Z,99312.28
2022-09-16T04:18:02.722Z,99314.22
2022-09-16T04:18:34.151Z,99308.44
2022-09-16T04:19:05.541Z,99308.75
2022-09-16T04:19:36.975Z,99310.97
2022-09-16T04:20:08.504Z,99306.31
2022-09-16T04:20:39.943Z,99315.00
2022-09-16T04:21:11.356Z,99310.66
2022-09-16T04:21:42.770Z,99314.53
2022-09-16T04:22:14.168Z,99310.97
2022-09-16T04:22:45.564Z,99315.31
2022-09-16T04:23:16.925Z,99309.84
2022-09-16T04:23:48.367Z,99311.47
2022-09-16T04:24:19.782Z,99308.75
2022-09-16T04:24:51.488Z,99311.47
2022-09-16T04:25:22.891Z,99304.41
2022-09-16T04:25:54.292Z,99307.13
2022-09-16T04:26:25.777Z,99306.81
2022-09-16T04:26:57.219Z,99302.47
2022-09-16T04:27:28.700Z,99302.97
2022-09-16T04:28:00.068Z,99303.75
2022-09-16T04:28:31.639Z,99308.09
2022-09-16T04:29:05.907Z,99306.50
2022-09-16T04:29:37.345Z,99311.16
2022-09-16T04:30:08.781Z,99307.63
2022-09-16T04:30:40.268Z,99307.31
2022-09-16T04:31:11.824Z,99309.53
2022-09-16T04:31:43.275Z,99312.44
2022-09-16T04:32:14.680Z,99311.16
2022-09-16T04:32:46.096Z,99313.09
2022-09-16T04:33:17.519Z,99313.09
2022-09-16T04:33:48.985Z,99309.06
2022-09-16T04:34:20.402Z,99314.22
2022-09-16T04:34:51.875Z,99313.09
2022-09-16T04:35:23.303Z,99315.81
2022-09-16T04:35:54.720Z,99307.94
2022-09-16T04:36:26.238Z,99314.84
2022-09-16T04:36:57.633Z,99311.47
2022-09-16T04:37:29.090Z,99314.53
2022-09-16T04:38:00.522Z,99316.94
2022-09-16T04:38:32.252Z,99311.47
2022-09-16T04:39:03.714Z,99308.75
2022-09-16T04:39:35.167Z,99312.09
2022-09-16T04:40:06.657Z,99310.34
2022-09-16T04:40:38.095Z,99316.63
2022-09-16T04:41:09.519Z,99310.03
2022-09-16T04:41:40.929Z,99311.97
2022-09-16T04:42:12.337Z,99311.16
2022-09-16T04:42:43.854Z,99308.09
2022-09-16T04:43:15.250Z,99309.22
2022-09-16T04:43:46.660Z,99314.69
2022-09-16T04:44:18.051Z,99310.84
2022-09-16T04:44:49.569Z,99308.91
2022-09-16T04:45:21.017Z,99307.78
2022-09-16T04:45:52.422Z,99309.22
2022-09-16T04:46:23.969Z,99305.38
2022-09-16T04:46:55.440Z,99306.50
2022-09-16T04:47:26.940Z,99310.03
2022-09-16T04:47:58.353Z,99304.25
2022-09-16T04:48:29.821Z,99310.03
2022-09-16T04:49:01.224Z,99300.22
2022-09-16T04:49:32.664Z,99303.44
2022-09-16T04:50:04.191Z,99301.03
2022-09-16T04:50:35.631Z,99309.22
2022-09-16T04:51:07.169Z,99307.78
2022-09-16T04:51:38.578Z,99313.56
2022-09-16T04:52:09.971Z,99316.00
2022-09-16T04:52:41.387Z,99310.84
2022-09-16T04:53:12.823Z,99314.06
2022-09-16T04:53:44.473Z,99309.72
2022-09-16T04:54:15.944Z,99308.09
2022-09-16T04:54:47.353Z,99311.97
2022-09-16T04:55:18.817Z,99312.28
2022-09-16T04:55:50.255Z,99311.97
2022-09-16T04:56:21.631Z,99314.69
2022-09-16T04:56:53.011Z,99308.59
2022-09-16T04:57:24.466Z,99310.03
2022-09-16T04:57:55.866Z,99308.91
2022-09-16T04:58:27.256Z,99316.31
2022-09-16T04:58:58.634Z,99313.09
2022-09-16T04:59:30.035Z,99312.28
2022-09-16T05:00:04.612Z,99308.75
2022-09-16T05:00:36.089Z,99306.81
2022-09-16T05:01:07.542Z,99313.41
2022-09-16T05:01:39.072Z,99310.66
2022-09-16T05:02:10.546Z,99309.84
2022-09-16T05:02:41.942Z,99310.34
2022-09-16T05:03:13.403Z,99312.28
2022-09-16T05:03:44.863Z,99315.81
2022-09-16T05:04:16.283Z,99308.75
2022-09-16T05:04:47.791Z,99309.84
2022-09-16T05:05:19.226Z,99308.75
2022-09-16T05:05:50.717Z,99315.31
2022-09-16T05:06:22.130Z,99314.53
2022-09-16T05:06:53.554Z,99316.44
2022-09-16T05:07:25.030Z,99318.06
2022-09-16T05:07:56.403Z,99323.53
2022-09-16T05:08:27.884Z,99316.13
2022-09-16T05:08:59.309Z,99320.78
2022-09-16T05:09:30.707Z,99321.59
2022-09-16T05:10:02.162Z,99320.00
2022-09-16T05:10:33.751Z,99317.75
2022-09-16T05:11:05.106Z,99316.94
2022-09-16T05:11:36.509Z,99322.41
2022-09-16T05:12:07.936Z,99327.88
2022-09-16T05:12:39.460Z,99316.44
2022-09-16T05:13:10.882Z,99323.53
2022-09-16T05:13:42.294Z,99327.06
2022-09-16T05:14:13.679Z,99321.91
2022-09-16T05:14:45.090Z,99317.25
2022-09-16T05:15:16.522Z,99323.53
2022-09-16T05:15:51.098Z,99320.00
2022-09-16T05:16:22.808Z,99318.06
2022-09-16T05:16:54.274Z,99315.31
2022-09-16T05:17:49.460Z,99320.78
2022-09-16T05:18:17.057Z,99315.31
2022-09-16T05:18:48.472Z,99316.94
2022-09-16T05:19:19.811Z,99319.34
2022-09-16T05:19:51.211Z,99310.66
2022-09-16T05:20:22.762Z,99315.81
2022-09-16T05:20:54.176Z,99314.22
2022-09-16T05:21:25.615Z,99312.28
2022-09-16T05:21:57.025Z,99307.44
2022-09-16T05:22:28.398Z,99316.94
2022-09-16T05:22:59.815Z,99312.91
2022-09-16T05:23:31.288Z,99312.91
2022-09-16T05:24:02.718Z,99314.53
2022-09-16T05:24:34.201Z,99316.75
2022-09-16T05:25:05.741Z,99317.56
2022-09-16T05:25:37.160Z,99316.28
2022-09-16T05:26:08.569Z,99317.88
2022-09-16T05:26:40.083Z,99321.91
2022-09-16T05:27:11.528Z,99318.38
2022-09-16T05:27:42.985Z,99323.66
2022-09-16T05:28:14.507Z,99315.97
2022-09-16T05:28:46.039Z,99323.53
2022-09-16T05:29:17.439Z,99323.03
2022-09-16T05:29:48.847Z,99319.19
2022-09-16T05:30:25.231Z,99315.97
2022-09-16T05:30:57.462Z,99323.84
2022-09-16T05:31:28.873Z,99311.78
2022-09-16T05:32:00.300Z,99313.72
2022-09-16T05:32:31.964Z,99317.56
2022-09-16T05:33:06.238Z,99320.78
2022-09-16T05:33:37.694Z,99313.72
2022-09-16T05:34:09.130Z,99316.94
2022-09-16T05:34:40.550Z,99318.06
2022-09-16T05:35:11.979Z,99320.78
2022-09-16T05:35:43.471Z,99315.31
2022-09-16T05:36:14.883Z,99318.06
2022-09-16T05:36:46.321Z,99327.88
2022-09-16T05:37:17.743Z,99313.72
2022-09-16T05:37:49.118Z,99317.25
2022-09-16T05:38:20.613Z,99321.41
2022-09-16T05:39:18.281Z,99320.00
2022-09-16T05:39:43.484Z,99319.19
2022-09-16T05:40:15.025Z,99323.34
2022-09-16T05:40:46.546Z,99316.75
2022-09-16T05:41:17.931Z,99321.41
2022-09-16T05:41:49.367Z,99318.38
2022-09-16T05:42:20.850Z,99322.22
2022-09-16T05:42:52.266Z,99318.69
2022-09-16T05:43:23.748Z,99316.75
2022-09-16T05:43:55.162Z,99309.69
2022-09-16T05:44:26.558Z,99317.06
2022-09-16T05:44:57.951Z,99318.69
2022-09-16T05:45:32.419Z,99319.50
2022-09-16T05:46:04.131Z,99313.72
2022-09-16T05:46:35.596Z,99314.84
2022-09-16T05:47:07.113Z,99312.72
2022-09-16T05:47:38.523Z,99313.84
2022-09-16T05:48:09.936Z,99316.75
2022-09-16T05:48:41.376Z,99319.50
2022-09-16T05:49:12.775Z,99314.84
2022-09-16T05:49:44.177Z,99315.47
2022-09-16T05:50:15.602Z,99313.22
2022-09-16T05:50:47.132Z,99308.06
2022-09-16T05:51:20.615Z,99310.81
2022-09-16T05:51:52.232Z,99313.53
2022-09-16T05:52:23.837Z,99312.72
2022-09-16T05:52:55.246Z,99315.47
2022-09-16T05:53:26.704Z,99313.22
2022-09-16T05:53:58.141Z,99307.75
2022-09-16T05:54:29.526Z,99307.75
2022-09-16T05:55:00.946Z,99312.09
2022-09-16T05:55:32.485Z,99304.53
2022-09-16T05:56:03.951Z,99311.94
2022-09-16T05:56:35.402Z,99308.88
2022-09-16T05:57:07.375Z,99312.72
2022-09-16T05:57:38.885Z,99309.19
2022-09-16T05:58:10.381Z,99313.03
2022-09-16T05:58:41.780Z,99312.41
2022-09-16T05:59:13.348Z,99305.66
2022-09-16T05:59:44.769Z,99303.72
2022-09-16T06:00:16.197Z,99311.94
2022-09-16T06:00:47.695Z,99306.94
2022-09-16T06:01:19.199Z,99310.00
2022-09-16T06:01:50.740Z,99312.09
2022-09-16T06:02:22.213Z,99311.78
2022-09-16T06:02:53.750Z,99306.94
2022-09-16T06:03:25.199Z,99306.94
2022-09-16T06:03:56.750Z,99307.28
2022-09-16T06:04:28.188Z,99309.19
2022-09-16T06:04:59.617Z,99312.72
2022-09-16T06:05:31.064Z,99307.59
2022-09-16T06:06:02.669Z,99310.63
2022-09-16T06:06:34.099Z,99308.69
2022-09-16T06:07:05.536Z,99309.50
2022-09-16T06:07:36.979Z,99310.00
2022-09-16T06:08:08.365Z,99312.91
2022-09-16T06:08:39.797Z,99312.72
2022-09-16T06:09:11.222Z,99310.81
2022-09-16T06:09:42.652Z,99315.97
2022-09-16T06:10:14.090Z,99318.19
2022-09-16T06:10:45.476Z,99311.13